createdAt,value
2022-11-16T00:02:07.472Z,95.0
2022-11-16T00:07:07.589Z,95.0
2022-11-16T00:17:07.445Z,95.5
2022-11-16T00:22:07.447Z,95.5
2022-11-16T00:27:07.471Z,95.5
2022-11-16T00:32:07.456Z,95.5
2022-11-16T00:37:07.454Z,95.5
2022-11-16T00:42:07.462Z,95.5
2022-11-16T00:47:07.463Z,95.5
2022-11-16T00:52:07.470Z,95.5
2022-11-16T00:57:07.483Z,95.0
2022-11-16T01:02:07.479Z,95.5
2022-11-16T01:07:07.545Z,95.0
2022-11-16T01:12:07.478Z,95.5
2022-11-16T01:17:07.481Z,95.0
2022-11-16T01:22:07.478Z,95.0
2022-11-16T01:27:07.489Z,95.0
2022-11-16T01:32:07.489Z,95.0
2022-11-16T01:37:07.492Z,95.0
2022-11-16T01:42:07.505Z,95.0
2022-11-16T01:47:07.502Z,95.0
2022-11-16T01:52:07.501Z,94.5
2022-11-16T01:57:07.504Z,94.5
2022-11-16T02:02:07.506Z,95.0
2022-11-16T02:07:07.560Z,95.0
2022-11-16T02:12:07.511Z,95.0
2022-11-16T02:17:07.515Z,95.0
2022-11-16T02:22:07.520Z,95.0
2022-11-16T02:27:07.521Z,95.0
2022-11-16T02:32:07.525Z,95.0
2022-11-16T02:37:07.537Z,95.0
2022-11-16T02:42:07.538Z,95.0
2022-11-16T02:47:07.537Z,95.0
2022-11-16T02:52:07.536Z,95.0
2022-11-16T02:57:07.551Z,95.0
2022-11-16T03:02:07.552Z,95.5
2022-11-16T03:07:07.549Z,95.5
2022-11-16T03:12:07.547Z,95.0
2022-11-16T03:17:07.550Z,95.0
2022-11-16T03:22:07.549Z,95.5
2022-11-16T03:27:07.552Z,95.0
2022-11-16T03:32:07.557Z,95.0
2022-11-16T03:37:07.573Z,95.0
2022-11-16T03:42:07.568Z,95.0
2022-11-16T03:47:07.563Z,95.0
2022-11-16T03:52:07.578Z,95.0
2022-11-16T03:57:07.579Z,95.0
2022-11-16T04:02:07.577Z,94.5
2022-11-16T04:07:07.670Z,94.5
2022-11-16T04:12:07.584Z,94.5
2022-11-16T04:17:07.590Z,94.5
2022-11-16T04:22:07.592Z,94.5
2022-11-16T04:27:07.589Z,94.0
2022-11-16T04:32:07.596Z,94.0
2022-11-16T04:37:07.598Z,94.0
2022-11-16T04:42:07.597Z,94.0
2022-11-16T04:47:07.609Z,94.0
2022-11-16T04:52:07.679Z,93.5
2022-11-16T04:57:07.602Z,93.5
2022-11-16T05:02:07.606Z,93.0
2022-11-16T05:07:07.717Z,93.0
2022-11-16T05:12:07.612Z,92.5
2022-11-16T05:17:07.620Z,92.5
2022-11-16T05:22:07.629Z,92.5
2022-11-16T05:27:07.624Z,92.5
2022-11-16T05:32:07.769Z,92.5
2022-11-16T05:37:07.625Z,92.5
2022-11-16T05:42:08.486Z,92.5
2022-11-16T05:47:07.631Z,92.5
2022-11-16T05:52:07.676Z,92.0
2022-11-16T05:57:07.637Z,92.0
2022-11-16T06:02:07.635Z,92.0
2022-11-16T06:07:07.837Z,91.5
2022-11-16T06:12:07.645Z,91.5
2022-11-16T06:17:07.772Z,91.5
2022-11-16T06:22:07.643Z,91.0
2022-11-16T06:27:07.650Z,91.5
2022-11-16T06:32:07.651Z,91.5
2022-11-16T06:37:07.648Z,91.5
2022-11-16T06:42:07.650Z,91.5
2022-11-16T06:47:07.660Z,91.5
2022-11-16T06:52:07.659Z,91.5
2022-11-16T06:57:07.679Z,91.5
2022-11-16T07:02:07.695Z,91.5
2022-11-16T07:07:07.691Z,92.0
2022-11-16T07:12:07.687Z,92.0
2022-11-16T07:17:09.613Z,92.0
2022-11-16T07:22:07.666Z,92.5
2022-11-16T07:27:07.678Z,92.5
2022-11-16T07:32:07.674Z,92.5
2022-11-16T07:37:07.677Z,92.5
2022-11-16T07:42:07.689Z,93.0
2022-11-16T07:47:07.684Z,93.0
2022-11-16T07:52:07.686Z,93.0
2022-11-16T07:57:07.690Z,93.0
2022-11-16T08:02:07.731Z,93.0
2022-11-16T08:07:07.768Z,93.0
2022-11-16T08:12:07.703Z,93.0
2022-11-16T08:17:07.706Z,93.0
2022-11-16T08:22:07.699Z,93.0
2022-11-16T08:27:07.709Z,93.0
2022-11-16T08:32:07.712Z,93.0
2022-11-16T08:37:07.715Z,93.0
2022-11-16T08:42:07.720Z,93.0
2022-11-16T08:47:07.718Z,92.5
2022-11-16T08:52:07.723Z,92.5
2022-11-16T08:57:07.727Z,92.5
2022-11-16T09:02:07.833Z,92.5
2022-11-16T09:07:07.871Z,92.5
2022-11-16T09:12:07.733Z,92.5
2022-11-16T09:17:07.739Z,92.0
2022-11-16T09:22:07.739Z,91.5
2022-11-16T09:27:07.741Z,91.5
2022-11-16T09:32:07.742Z,91.5
2022-11-16T09:37:07.745Z,91.0
2022-11-16T09:42:07.756Z,90.5
2022-11-16T09:47:07.752Z,90.0
2022-11-16T09:52:07.752Z,90.0
2022-11-16T09:57:12.223Z,90.0
2022-11-16T10:02:07.768Z,89.5
2022-11-16T10:07:07.853Z,89.0
2022-11-16T10:12:07.778Z,88.5
2022-11-16T10:17:07.768Z,88.0
2022-11-16T10:22:07.770Z,87.5
2022-11-16T10:27:07.782Z,87.0
2022-11-16T10:32:07.783Z,86.0
2022-11-16T10:37:07.785Z,85.5
2022-11-16T10:42:08.088Z,84.5
2022-11-16T10:47:07.794Z,84.0
2022-11-16T10:52:07.814Z,84.0
2022-11-16T10:57:07.796Z,83.5
2022-11-16T11:02:07.811Z,82.0
2022-11-16T11:07:07.855Z,82.5
2022-11-16T11:12:07.812Z,82.0
2022-11-16T11:17:07.812Z,81.5
2022-11-16T11:22:07.831Z,80.5
2022-11-16T11:27:07.816Z,80.0
2022-11-16T11:32:07.832Z,80.5
2022-11-16T11:37:07.852Z,80.0
2022-11-16T11:42:07.833Z,79.5
2022-11-16T11:52:07.833Z,78.5
2022-11-16T11:57:07.833Z,78.0
2022-11-16T12:02:07.839Z,77.0
2022-11-16T12:07:07.875Z,76.5
2022-11-16T12:12:13.340Z,77.0
2022-11-16T12:17:07.856Z,77.0
2022-11-16T12:22:07.867Z,75.5
2022-11-16T12:27:07.859Z,75.0
2022-11-16T12:32:07.860Z,75.5
2022-11-16T12:37:07.862Z,75.0
2022-11-16T12:42:07.862Z,75.0
2022-11-16T12:47:07.869Z,75.5
2022-11-16T12:52:07.872Z,75.0
2022-11-16T12:57:07.881Z,74.0
2022-11-16T13:02:07.886Z,73.0
2022-11-16T13:07:10.655Z,71.5
2022-11-16T13:12:07.888Z,71.5
2022-11-16T13:17:07.895Z,72.0
2022-11-16T13:22:07.889Z,71.0
2022-11-16T13:27:07.905Z,69.5
2022-11-16T13:32:07.907Z,69.5
2022-11-16T13:37:07.904Z,70.5
2022-11-16T13:42:07.905Z,70.5
2022-11-16T13:47:07.905Z,71.5
2022-11-16T13:52:22.711Z,71.5
2022-11-16T13:57:07.912Z,71.0
2022-11-16T14:02:07.918Z,71.5
2022-11-16T14:07:07.956Z,71.5
2022-11-16T14:12:07.921Z,70.5
2022-11-16T14:17:07.927Z,69.5
2022-11-16T14:22:07.928Z,69.5
2022-11-16T14:27:07.944Z,69.5
2022-11-16T14:32:07.941Z,70.5
2022-11-16T14:37:07.934Z,71.0
2022-11-16T14:42:07.936Z,71.0
2022-11-16T14:47:07.945Z,71.0
2022-11-16T14:52:08.350Z,71.0
2022-11-16T14:57:07.944Z,71.5
2022-11-16T15:02:07.958Z,71.5
2022-11-16T15:07:08.025Z,71.5
2022-11-16T15:12:07.952Z,71.5
2022-11-16T15:17:07.965Z,71.5
2022-11-16T15:22:07.952Z,71.5
2022-11-16T15:27:07.962Z,72.0
2022-11-16T15:32:07.960Z,72.5
2022-11-16T15:37:07.962Z,72.5
2022-11-16T15:42:07.974Z,72.5
2022-11-16T15:47:07.959Z,73.0
2022-11-16T15:52:07.964Z,73.5
2022-11-16T15:57:08.071Z,73.5
2022-11-16T16:02:07.971Z,74.0
2022-11-16T16:07:08.008Z,74.5
2022-11-16T16:12:07.973Z,74.5
2022-11-16T16:17:07.979Z,74.5
2022-11-16T16:22:07.982Z,74.5
2022-11-16T16:27:07.981Z,74.5
2022-11-16T16:32:07.989Z,75.0
2022-11-16T16:37:07.997Z,75.0
2022-11-16T16:42:07.993Z,75.0
2022-11-16T16:47:07.995Z,75.0
2022-11-16T16:52:08.002Z,75.5
2022-11-16T16:57:08.007Z,75.5
2022-11-16T17:02:08.010Z,75.5
2022-11-16T17:07:08.032Z,75.5
2022-11-16T17:12:08.016Z,75.5
2022-11-16T17:17:08.016Z,75.0
2022-11-16T17:22:08.008Z,75.0
2022-11-16T17:27:08.022Z,75.0
2022-11-16T17:32:08.023Z,75.0
2022-11-16T17:37:08.018Z,75.0
2022-11-16T17:42:08.022Z,75.5
2022-11-16T17:47:08.033Z,76.0
2022-11-16T17:52:08.047Z,76.0
2022-11-16T17:57:08.026Z,76.5
2022-11-16T18:02:08.037Z,77.0
2022-11-16T18:07:08.098Z,77.5
2022-11-16T18:12:08.046Z,78.0
2022-11-16T18:17:08.041Z,78.0
2022-11-16T18:22:08.044Z,78.5
2022-11-16T18:27:08.039Z,79.0
2022-11-16T18:32:08.048Z,79.0
2022-11-16T18:37:08.048Z,79.0
2022-11-16T18:42:08.053Z,79.0
2022-11-16T18:47:08.051Z,79.5
2022-11-16T18:52:08.062Z,80.0
2022-11-16T18:57:08.056Z,80.5
2022-11-16T19:02:08.056Z,80.5
2022-11-16T19:07:08.120Z,80.5
2022-11-16T19:12:08.078Z,80.5
2022-11-16T19:17:08.065Z,81.0
2022-11-16T19:22:08.068Z,81.0
2022-11-16T19:27:08.068Z,81.0
2022-11-16T19:32:08.074Z,81.0
2022-11-16T19:37:08.079Z,81.5
2022-11-16T19:42:08.082Z,81.5
2022-11-16T19:47:08.085Z,81.5
2022-11-16T19:52:08.085Z,82.0
2022-11-16T19:57:08.087Z,82.0
2022-11-16T20:07:08.134Z,82.0
2022-11-16T20:12:08.102Z,82.5
2022-11-16T20:17:08.093Z,82.5
2022-11-16T20:22:08.099Z,82.5
2022-11-16T20:27:08.103Z,82.5
2022-11-16T20:32:08.105Z,82.5
2022-11-16T20:37:08.109Z,82.5
2022-11-16T20:42:08.118Z,82.5
2022-11-16T20:47:08.115Z,83.0
2022-11-16T20:52:08.111Z,83.0
2022-11-16T20:57:08.126Z,83.0
2022-11-16T21:02:08.125Z,83.0
2022-11-16T21:07:08.224Z,83.0
2022-11-16T21:12:08.123Z,83.0
2022-11-16T21:17:08.124Z,83.5
2022-11-16T21:22:08.132Z,83.5
2022-11-16T21:27:08.135Z,83.0
2022-11-16T21:37:08.134Z,83.5
2022-11-16T21:42:08.141Z,83.5
2022-11-16T21:47:08.142Z,83.5
2022-11-16T21:52:08.148Z,84.0
2022-11-16T21:57:08.158Z,84.0
2022-11-16T22:02:08.153Z,84.0
2022-11-16T22:07:08.183Z,84.0
2022-11-16T22:12:08.172Z,84.5
2022-11-16T22:17:08.165Z,85.0
2022-11-16T22:22:08.165Z,85.5
2022-11-16T22:27:08.174Z,86.0
2022-11-16T22:32:08.170Z,87.0
2022-11-16T22:37:08.184Z,87.5
2022-11-16T22:42:08.179Z,88.0
2022-11-16T22:47:08.184Z,88.5
2022-11-16T22:52:08.183Z,89.5
2022-11-16T22:57:08.189Z,90.0
2022-11-16T23:02:08.191Z,90.5
2022-11-16T23:07:08.230Z,91.0
2022-11-16T23:12:08.189Z,91.5
2022-11-16T23:17:08.202Z,92.0
2022-11-16T23:22:08.197Z,93.0
2022-11-16T23:27:08.204Z,93.0
2022-11-16T23:32:08.203Z,94.0
2022-11-16T23:37:08.221Z,94.0
2022-11-16T23:42:08.216Z,94.0
2022-11-16T23:47:08.217Z,94.5
2022-11-16T23:52:08.213Z,94.5
2022-11-16T23:57:08.217Z,94.5
